createdAt,value
2018-05-17T00:01:37.739Z,8.83
2018-05-17T00:04:06.763Z,8.30
2018-05-17T00:06:35.015Z,8.73
2018-05-17T00:09:03.320Z,9.50
2018-05-17T00:11:32.348Z,9.00
2018-05-17T00:14:00.583Z,8.97
2018-05-17T00:16:28.809Z,9.53
2018-05-17T00:18:57.088Z,8.43
2018-05-17T00:21:26.098Z,8.30
2018-05-17T00:23:55.099Z,8.87
2018-05-17T00:26:24.114Z,8.40
2018-05-17T00:28:53.124Z,8.37
2018-05-17T00:31:22.214Z,9.20
2018-05-17T00:33:51.335Z,9.90
2018-05-17T00:36:20.355Z,9.07
2018-05-17T00:38:48.590Z,9.57
2018-05-17T00:41:16.844Z,9.33
2018-05-17T00:43:45.084Z,8.87
2018-05-17T00:46:13.387Z,8.67
2018-05-17T00:48:42.401Z,9.03
2018-05-17T00:51:11.459Z,9.30
2018-05-17T00:53:39.798Z,9.07
2018-05-17T00:56:08.817Z,8.80
2018-05-17T00:58:37.813Z,8.03
2018-05-17T01:01:06.835Z,8.03
2018-05-17T01:03:35.090Z,9.60
2018-05-17T01:06:03.394Z,9.70
2018-05-17T01:08:32.414Z,8.33
2018-05-17T01:11:00.703Z,9.40
2018-05-17T01:13:28.934Z,9.57
2018-05-17T01:15:57.267Z,10.27
2018-05-17T01:18:26.241Z,10.27
2018-05-17T01:20:55.310Z,9.57
2018-05-17T01:23:23.546Z,9.90
2018-05-17T01:25:51.806Z,10.50
2018-05-17T01:28:20.830Z,10.70
2018-05-17T01:30:49.075Z,11.47
2018-05-17T01:33:17.330Z,11.27
2018-05-17T01:35:45.595Z,12.43
2018-05-17T01:38:25.526Z,10.83
2018-05-17T01:40:53.763Z,12.17
2018-05-17T01:43:22.054Z,13.27
2018-05-17T01:45:50.308Z,13.10
2018-05-17T01:48:18.578Z,13.27
2018-05-17T01:50:46.823Z,14.47
2018-05-17T01:53:15.089Z,14.43
2018-05-17T01:55:43.319Z,14.80
2018-05-17T01:58:12.333Z,16.30
2018-05-17T02:00:40.592Z,15.93
2018-05-17T02:03:08.803Z,15.67
2018-05-17T02:05:37.088Z,16.27
2018-05-17T02:08:05.351Z,17.17
2018-05-17T02:10:33.599Z,17.13
2018-05-17T02:13:01.890Z,15.60
2018-05-17T02:15:30.099Z,18.33
2018-05-17T02:17:59.123Z,18.07
2018-05-17T02:20:28.130Z,18.93
2018-05-17T02:22:56.424Z,20.00
2018-05-17T02:25:24.711Z,20.03
2018-05-17T02:27:53.027Z,20.53
2018-05-17T02:30:22.140Z,20.30
2018-05-17T02:32:51.244Z,19.77
2018-05-17T02:35:20.319Z,20.83
2018-05-17T02:37:48.651Z,21.20
2018-05-17T02:40:16.898Z,19.77
2018-05-17T02:42:45.214Z,20.70
2018-05-17T02:45:14.344Z,19.93
2018-05-17T02:47:42.588Z,19.17
2018-05-17T02:50:10.842Z,20.90
2018-05-17T02:52:39.090Z,20.17
2018-05-17T02:55:08.123Z,21.10
2018-05-17T02:57:36.366Z,20.90
2018-05-17T03:00:04.624Z,21.13
2018-05-17T03:02:32.879Z,21.17
2018-05-17T03:05:01.134Z,20.87
2018-05-17T03:07:29.381Z,19.90
2018-05-17T03:09:57.740Z,21.17
2018-05-17T03:12:26.756Z,22.07
2018-05-17T03:14:55.026Z,20.50
2018-05-17T03:17:24.150Z,21.30
2018-05-17T03:19:52.387Z,20.77
2018-05-17T03:22:21.400Z,18.50
2018-05-17T03:24:50.419Z,18.80
2018-05-17T03:27:20.042Z,18.40
2018-05-17T03:29:48.307Z,17.33
2018-05-17T03:32:16.561Z,17.70
2018-05-17T03:34:44.834Z,16.87
2018-05-17T03:37:13.847Z,16.50
2018-05-17T03:39:42.868Z,15.77
2018-05-17T03:42:11.126Z,16.07
2018-05-17T03:44:40.730Z,17.57
2018-05-17T03:47:09.751Z,15.67
2018-05-17T03:49:38.870Z,14.97
2018-05-17T03:52:07.845Z,15.70
2018-05-17T03:54:36.910Z,16.10
2018-05-17T03:57:05.142Z,15.47
2018-05-17T03:59:33.413Z,14.33
2018-05-17T04:02:19.399Z,14.07
2018-05-17T04:05:05.398Z,13.77
2018-05-17T04:07:33.592Z,13.93
2018-05-17T04:10:01.824Z,14.10
2018-05-17T04:12:30.102Z,15.40
2018-05-17T04:14:58.362Z,14.50
2018-05-17T04:17:26.603Z,14.70
2018-05-17T04:19:55.622Z,14.10
2018-05-17T04:22:23.867Z,14.83
2018-05-17T04:24:52.093Z,14.60
2018-05-17T04:27:20.370Z,13.53
2018-05-17T04:29:48.658Z,12.67
2018-05-17T04:32:18.418Z,12.70
2018-05-17T04:34:46.675Z,12.50
2018-05-17T04:37:15.679Z,12.30
2018-05-17T04:39:44.718Z,13.37
2018-05-17T04:42:12.959Z,13.77
2018-05-17T04:44:41.219Z,13.60
2018-05-17T04:47:09.551Z,14.33
2018-05-17T04:49:37.728Z,15.43
2018-05-17T04:52:05.982Z,16.57
2018-05-17T04:54:34.234Z,17.27
2018-05-17T04:57:02.530Z,18.77
2018-05-17T04:59:31.535Z,19.67
2018-05-17T05:01:59.823Z,21.53
2018-05-17T05:04:28.833Z,21.00
2018-05-17T05:06:57.095Z,22.63
2018-05-17T05:09:25.359Z,22.73
2018-05-17T05:11:53.605Z,23.07
2018-05-17T05:14:21.842Z,22.27
2018-05-17T05:16:50.114Z,22.20
2018-05-17T05:19:18.355Z,24.17
2018-05-17T05:21:47.345Z,22.63
2018-05-17T05:24:15.630Z,23.00
2018-05-17T05:26:43.939Z,22.93
2018-05-17T05:29:13.040Z,23.73
2018-05-17T05:31:42.026Z,24.80
2018-05-17T05:34:10.345Z,25.80
2018-05-17T05:36:39.370Z,24.63
2018-05-17T05:39:07.610Z,26.50
2018-05-17T05:41:35.866Z,25.87
2018-05-17T05:44:04.118Z,25.57
2018-05-17T05:46:33.228Z,25.80
2018-05-17T05:49:02.247Z,26.50
2018-05-17T05:51:31.646Z,27.07
2018-05-17T05:54:00.859Z,26.63
2018-05-17T05:56:29.963Z,24.47
2018-05-17T05:58:58.229Z,24.87
2018-05-17T06:01:27.255Z,23.90
2018-05-17T06:03:56.234Z,24.80
2018-05-17T06:06:25.292Z,26.70
2018-05-17T06:08:53.516Z,25.70
2018-05-17T06:11:22.533Z,24.80
2018-05-17T06:13:50.795Z,26.90
2018-05-17T06:16:19.036Z,27.53
2018-05-17T06:18:48.066Z,27.70
2018-05-17T06:21:16.316Z,28.50
2018-05-17T06:23:44.627Z,26.90
2018-05-17T06:26:12.839Z,25.93
2018-05-17T06:28:41.097Z,27.00
2018-05-17T06:31:09.327Z,26.70
2018-05-17T06:33:37.583Z,26.37
2018-05-17T06:36:06.604Z,25.37
2018-05-17T06:38:35.634Z,26.30
2018-05-17T06:41:03.874Z,24.40
2018-05-17T06:43:32.931Z,24.03
2018-05-17T06:46:01.183Z,21.37
2018-05-17T06:48:30.212Z,20.47
2018-05-17T06:50:58.461Z,19.57
2018-05-17T06:53:26.763Z,19.13
2018-05-17T06:55:56.346Z,20.10
2018-05-17T06:58:24.611Z,19.33
2018-05-17T07:00:52.907Z,20.07
2018-05-17T07:03:21.882Z,20.80
2018-05-17T07:05:50.089Z,21.10
2018-05-17T07:08:18.369Z,20.50
2018-05-17T07:10:46.620Z,20.50
2018-05-17T07:13:14.877Z,19.97
2018-05-17T07:15:43.119Z,19.60
2018-05-17T07:18:12.319Z,19.80
2018-05-17T07:20:40.412Z,19.33
2018-05-17T07:23:09.405Z,21.13
2018-05-17T07:25:37.688Z,19.00
2018-05-17T07:28:05.953Z,19.70
2018-05-17T07:30:34.167Z,18.90
2018-05-17T07:33:02.435Z,16.60
2018-05-17T07:35:31.481Z,15.67
2018-05-17T07:38:01.259Z,13.57
2018-05-17T07:40:29.520Z,12.80
2018-05-17T07:42:57.770Z,12.53
2018-05-17T07:45:26.795Z,12.80
2018-05-17T07:47:55.815Z,14.27
2018-05-17T07:50:24.075Z,13.60
2018-05-17T07:52:53.082Z,14.33
2018-05-17T07:55:22.108Z,14.17
2018-05-17T07:57:50.350Z,15.20
2018-05-17T08:00:18.618Z,15.23
2018-05-17T08:02:46.892Z,14.40
2018-05-17T08:05:15.136Z,14.07
2018-05-17T08:07:43.378Z,12.37
2018-05-17T08:10:11.644Z,12.97
2018-05-17T08:12:39.886Z,14.53
2018-05-17T08:15:08.165Z,13.60
2018-05-17T08:17:36.415Z,13.80
2018-05-17T08:20:04.685Z,15.37
2018-05-17T08:22:33.689Z,17.57
2018-05-17T08:25:02.726Z,17.43
2018-05-17T08:27:31.667Z,17.50
2018-05-17T08:29:59.931Z,18.70
2018-05-17T08:32:28.211Z,18.47
2018-05-17T08:34:56.475Z,18.73
2018-05-17T08:37:25.488Z,20.87
2018-05-17T08:39:53.754Z,21.73
2018-05-17T08:42:22.758Z,20.37
2018-05-17T08:44:51.796Z,20.20
2018-05-17T08:47:20.031Z,22.80
2018-05-17T08:49:48.356Z,22.30
2018-05-17T08:52:16.590Z,21.20
2018-05-17T08:54:44.848Z,22.37
2018-05-17T08:57:13.099Z,22.80
2018-05-17T08:59:41.404Z,22.33
2018-05-17T09:02:09.616Z,22.67
2018-05-17T09:04:37.861Z,21.10
2018-05-17T09:07:06.104Z,20.70
2018-05-17T09:09:34.383Z,19.13
2018-05-17T09:12:02.663Z,18.80
2018-05-17T09:14:30.946Z,21.10
2018-05-17T09:16:59.997Z,20.50
2018-05-17T09:19:28.225Z,21.00
2018-05-17T09:21:57.247Z,20.80
2018-05-17T09:24:26.950Z,20.83
2018-05-17T09:26:55.209Z,19.90
2018-05-17T09:29:24.224Z,21.53
2018-05-17T09:31:54.235Z,21.37
2018-05-17T09:34:22.586Z,22.03
2018-05-17T09:36:50.843Z,21.40
2018-05-17T09:39:19.115Z,19.37
2018-05-17T09:41:47.382Z,19.70
2018-05-17T09:44:15.592Z,20.03
2018-05-17T09:46:44.647Z,18.83
2018-05-17T09:49:13.662Z,18.63
2018-05-17T09:51:42.755Z,17.60
2018-05-17T09:54:11.737Z,20.27
2018-05-17T09:56:40.006Z,18.90
2018-05-17T09:59:09.427Z,17.67
2018-05-17T10:01:37.700Z,16.30
2018-05-17T10:04:06.048Z,17.97
2018-05-17T10:06:35.038Z,17.03
2018-05-17T10:09:03.327Z,18.13
2018-05-17T10:11:31.635Z,18.17
2018-05-17T10:14:01.548Z,17.27
2018-05-17T10:16:29.861Z,17.90
2018-05-17T10:18:58.120Z,17.90
2018-05-17T10:21:26.372Z,16.40
2018-05-17T10:23:54.621Z,16.57
2018-05-17T10:26:23.643Z,15.87
2018-05-17T10:28:51.870Z,16.90
2018-05-17T10:31:20.176Z,15.83
2018-05-17T10:33:48.374Z,17.40
2018-05-17T10:36:17.332Z,17.73
2018-05-17T10:38:45.571Z,15.70
2018-05-17T10:41:14.546Z,16.93
2018-05-17T10:43:43.552Z,17.27
2018-05-17T10:46:12.611Z,17.17
2018-05-17T10:48:40.812Z,17.10
2018-05-17T10:51:09.092Z,16.43
2018-05-17T10:53:37.384Z,15.90
2018-05-17T10:56:05.631Z,14.83
2018-05-17T10:58:33.851Z,14.70
2018-05-17T11:01:02.146Z,14.60
2018-05-17T11:03:30.400Z,14.43
2018-05-17T11:05:58.646Z,17.00
2018-05-17T11:08:26.912Z,16.77
2018-05-17T11:10:55.156Z,15.60
2018-05-17T11:13:23.370Z,16.13
2018-05-17T11:15:51.610Z,14.33
2018-05-17T11:18:19.911Z,14.13
2018-05-17T11:20:48.931Z,15.13
2018-05-17T11:23:17.186Z,16.77
2018-05-17T11:25:45.435Z,16.27
2018-05-17T11:28:14.481Z,16.10
2018-05-17T11:30:42.718Z,16.27
2018-05-17T11:33:11.726Z,16.40
2018-05-17T11:35:40.003Z,16.57
2018-05-17T11:38:08.311Z,17.43
2018-05-17T11:40:37.318Z,16.87
2018-05-17T11:43:06.325Z,17.50
2018-05-17T11:45:34.605Z,17.13
2018-05-17T11:48:02.878Z,16.50
2018-05-17T11:50:32.110Z,16.20
2018-05-17T11:53:01.119Z,16.53
2018-05-17T11:55:30.092Z,17.63
2018-05-17T11:57:59.160Z,17.17
2018-05-17T12:00:27.435Z,16.93
2018-05-17T12:02:55.718Z,16.33
2018-05-17T12:05:24.726Z,16.47
2018-05-17T12:07:53.759Z,16.00
2018-05-17T12:10:21.967Z,15.50
2018-05-17T12:12:50.256Z,14.77
2018-05-17T12:15:18.605Z,14.30
2018-05-17T12:17:47.643Z,15.57
2018-05-17T12:20:15.969Z,15.97
2018-05-17T12:22:44.279Z,15.10
2018-05-17T12:25:13.261Z,14.10
2018-05-17T12:27:42.267Z,13.20
2018-05-17T12:30:11.909Z,12.77
2018-05-17T12:32:40.919Z,13.80
2018-05-17T12:35:09.945Z,13.80
2018-05-17T12:37:38.188Z,14.10
2018-05-17T12:40:06.443Z,13.77
2018-05-17T12:42:34.686Z,14.73
2018-05-17T12:45:04.418Z,13.33
2018-05-17T12:47:32.663Z,14.03
2018-05-17T12:50:01.739Z,13.90
2018-05-17T12:52:29.979Z,12.70
2018-05-17T12:54:58.235Z,13.37
2018-05-17T12:57:26.478Z,13.23
2018-05-17T12:59:55.507Z,13.10
2018-05-17T13:02:23.747Z,13.07
2018-05-17T13:04:52.007Z,11.97
2018-05-17T13:07:20.211Z,11.97
2018-05-17T13:09:49.237Z,11.93
2018-05-17T13:12:17.516Z,11.87
2018-05-17T13:14:45.782Z,11.47
2018-05-17T13:17:14.031Z,12.33
2018-05-17T13:19:43.018Z,10.73
2018-05-17T13:22:11.288Z,11.13
2018-05-17T13:24:39.502Z,11.70
2018-05-17T13:27:07.769Z,10.63
2018-05-17T13:29:36.017Z,11.80
2018-05-17T13:32:04.274Z,11.23
2018-05-17T13:34:33.294Z,11.33
2018-05-17T13:37:01.629Z,11.07
2018-05-17T13:39:29.887Z,11.20
2018-05-17T13:41:58.127Z,10.30
2018-05-17T13:44:26.372Z,10.70
2018-05-17T13:46:54.625Z,9.23
2018-05-17T13:49:23.631Z,9.37
2018-05-17T13:51:52.664Z,10.23
2018-05-17T13:54:20.903Z,9.93
2018-05-17T13:56:49.155Z,9.63
2018-05-17T13:59:17.355Z,10.73
2018-05-17T14:01:46.406Z,10.27
2018-05-17T14:04:15.417Z,8.73
2018-05-17T14:06:44.437Z,9.10
2018-05-17T14:09:12.671Z,9.07
2018-05-17T14:11:40.926Z,9.83
2018-05-17T14:14:09.163Z,9.23
2018-05-17T14:16:37.427Z,8.10
2018-05-17T14:19:05.672Z,8.40
2018-05-17T14:21:34.689Z,9.37
2018-05-17T14:24:03.710Z,8.77
2018-05-17T14:26:32.002Z,9.13
2018-05-17T14:29:00.251Z,8.33
2018-05-17T14:31:29.358Z,9.50
2018-05-17T14:33:58.328Z,8.17
2018-05-17T14:36:27.406Z,8.37
2018-05-17T14:38:55.649Z,8.50
2018-05-17T14:41:23.914Z,7.93
2018-05-17T14:43:52.164Z,8.27
2018-05-17T14:46:20.419Z,8.63
2018-05-17T14:48:49.422Z,8.17
2018-05-17T14:51:17.663Z,8.40
2018-05-17T14:53:45.916Z,8.10
2018-05-17T14:56:14.939Z,8.70
2018-05-17T14:58:43.187Z,8.43
2018-05-17T15:01:11.483Z,8.57
2018-05-17T15:03:39.679Z,8.53
2018-05-17T15:06:08.684Z,7.83
2018-05-17T15:08:37.721Z,8.43
2018-05-17T15:11:06.728Z,8.57
2018-05-17T15:13:35.735Z,8.50
2018-05-17T15:16:03.999Z,8.40
2018-05-17T15:18:32.275Z,8.13
2018-05-17T15:21:01.251Z,7.87
2018-05-17T15:23:30.312Z,8.10
2018-05-17T15:25:58.551Z,8.33
2018-05-17T15:28:26.821Z,8.33
2018-05-17T15:30:55.063Z,7.37
2018-05-17T15:33:24.117Z,7.70
2018-05-17T15:35:52.315Z,7.47
2018-05-17T15:38:20.603Z,6.47
2018-05-17T15:40:49.624Z,6.97
2018-05-17T15:43:17.892Z,6.23
2018-05-17T15:45:46.130Z,6.20
2018-05-17T15:48:15.218Z,5.67
2018-05-17T15:50:43.403Z,5.27
2018-05-17T15:53:11.659Z,5.33
2018-05-17T15:55:39.890Z,5.97
2018-05-17T15:58:08.159Z,6.20
2018-05-17T16:00:36.378Z,5.20
2018-05-17T16:03:04.682Z,4.87
2018-05-17T16:05:33.696Z,5.20
2018-05-17T16:08:01.976Z,5.53
2018-05-17T16:10:31.014Z,5.50
2018-05-17T16:12:59.208Z,4.83
2018-05-17T16:15:27.640Z,4.77
2018-05-17T16:17:55.736Z,5.10
2018-05-17T16:20:24.802Z,5.20
2018-05-17T16:22:53.049Z,5.17
2018-05-17T16:25:22.079Z,5.10
2018-05-17T16:27:50.324Z,5.30
2018-05-17T16:30:18.600Z,5.30
2018-05-17T16:32:46.879Z,4.73
2018-05-17T16:35:15.095Z,4.80
2018-05-17T16:37:44.100Z,5.20
2018-05-17T16:40:13.080Z,5.40
2018-05-17T16:42:42.124Z,5.87
2018-05-17T16:45:11.139Z,5.23
2018-05-17T16:47:39.439Z,5.53
2018-05-17T16:50:07.667Z,5.30
2018-05-17T16:52:36.766Z,5.70
2018-05-17T16:55:05.759Z,5.87
2018-05-17T16:57:33.994Z,6.13
2018-05-17T17:00:03.040Z,6.17
2018-05-17T17:02:31.297Z,6.13
2018-05-17T17:05:00.356Z,7.50
2018-05-17T17:07:28.551Z,7.47
2018-05-17T17:09:57.642Z,6.63
2018-05-17T17:12:25.954Z,7.30
2018-05-17T17:14:54.198Z,8.17
2018-05-17T17:17:22.442Z,8.67
2018-05-17T17:19:50.701Z,8.63
2018-05-17T17:22:18.948Z,7.77
2018-05-17T17:24:47.947Z,8.37
2018-05-17T17:27:16.214Z,8.27
2018-05-17T17:29:44.471Z,8.53
2018-05-17T17:32:12.713Z,8.87
2018-05-17T17:34:40.979Z,8.37
2018-05-17T17:37:09.211Z,8.93
2018-05-17T17:39:37.430Z,8.97
2018-05-17T17:42:05.703Z,8.97
2018-05-17T17:44:33.972Z,8.63
2018-05-17T17:47:03.195Z,9.07
2018-05-17T17:49:31.422Z,9.40
2018-05-17T17:51:59.647Z,9.40
2018-05-17T17:54:27.927Z,9.00
2018-05-17T17:56:56.150Z,8.90
2018-05-17T17:59:24.423Z,9.47
2018-05-17T18:01:53.452Z,10.00
2018-05-17T18:04:21.697Z,9.60
2018-05-17T18:06:49.968Z,8.97
2018-05-17T18:09:18.203Z,9.30
2018-05-17T18:11:46.490Z,9.07
2018-05-17T18:14:14.737Z,8.80
2018-05-17T18:16:43.797Z,9.73
2018-05-17T18:19:12.082Z,10.63
2018-05-17T18:21:40.372Z,10.07
2018-05-17T18:24:08.732Z,10.67
2018-05-17T18:26:36.930Z,10.03
2018-05-17T18:29:05.949Z,9.83
2018-05-17T18:31:34.970Z,8.70
2018-05-17T18:34:03.215Z,8.97
2018-05-17T18:36:31.479Z,9.97
2018-05-17T18:38:59.727Z,10.03
2018-05-17T18:41:28.047Z,9.47
2018-05-17T18:43:56.299Z,10.10
2018-05-17T18:46:25.309Z,10.50
2018-05-17T18:48:53.579Z,9.90
2018-05-17T18:51:21.831Z,10.37
2018-05-17T18:53:50.048Z,9.53
2018-05-17T18:56:18.354Z,10.03
2018-05-17T18:58:47.374Z,9.97
2018-05-17T19:01:16.723Z,10.83
2018-05-17T19:03:45.012Z,9.40
2018-05-17T19:06:13.253Z,10.43
2018-05-17T19:08:42.371Z,11.23
2018-05-17T19:13:40.658Z,11.17
2018-05-17T19:16:09.699Z,10.10
2018-05-17T19:18:37.959Z,10.63
2018-05-17T19:21:06.216Z,10.70
2018-05-17T19:23:34.482Z,11.23
2018-05-17T19:26:02.727Z,10.67
2018-05-17T19:28:30.998Z,10.33
2018-05-17T19:30:59.341Z,11.43
2018-05-17T19:33:27.759Z,10.97
2018-05-17T19:35:55.997Z,10.63
2018-05-17T19:38:25.018Z,11.03
2018-05-17T19:40:54.613Z,10.73
2018-05-17T19:43:22.877Z,10.63
2018-05-17T19:45:51.113Z,10.83
2018-05-17T19:48:20.140Z,11.43
2018-05-17T19:50:48.386Z,11.97
2018-05-17T19:53:16.655Z,10.97
2018-05-17T19:55:44.987Z,12.20
2018-05-17T19:58:14.099Z,11.83
2018-05-17T20:00:43.210Z,12.90
2018-05-17T20:03:12.188Z,11.20
2018-05-17T20:05:40.479Z,10.80
2018-05-17T20:08:08.739Z,11.70
2018-05-17T20:10:36.994Z,10.80
2018-05-17T20:13:05.267Z,10.77
2018-05-17T20:15:34.374Z,10.70
2018-05-17T20:18:03.400Z,11.93
2018-05-17T20:20:32.513Z,11.67
2018-05-17T20:23:00.788Z,11.37
2018-05-17T20:25:29.795Z,11.73
2018-05-17T20:27:58.061Z,10.90
2018-05-17T20:30:27.185Z,12.10
2018-05-17T20:32:56.207Z,11.83
2018-05-17T20:35:24.428Z,11.10
2018-05-17T20:37:53.476Z,12.30
2018-05-17T20:40:22.487Z,12.27
2018-05-17T20:42:51.882Z,12.67
2018-05-17T20:45:21.346Z,12.27
2018-05-17T20:47:49.583Z,12.37
2018-05-17T20:50:17.851Z,12.63
2018-05-17T20:52:46.108Z,12.27
2018-05-17T20:55:14.372Z,12.53
2018-05-17T20:57:42.623Z,11.77
2018-05-17T21:00:10.882Z,11.70
2018-05-17T21:02:39.117Z,11.93
2018-05-17T21:05:07.388Z,12.97
2018-05-17T21:07:35.607Z,12.13
2018-05-17T21:10:04.606Z,12.30
2018-05-17T21:12:32.866Z,12.93
2018-05-17T21:15:01.936Z,12.70
2018-05-17T21:17:30.211Z,12.87
2018-05-17T21:19:59.235Z,13.57
2018-05-17T21:22:27.479Z,12.60
2018-05-17T21:24:55.737Z,13.40
2018-05-17T21:27:23.963Z,13.00
2018-05-17T21:29:52.220Z,13.30
2018-05-17T21:32:21.388Z,12.20
2018-05-17T21:34:49.656Z,12.90
2018-05-17T21:37:17.858Z,12.17
2018-05-17T21:39:46.123Z,12.47
2018-05-17T21:42:14.472Z,13.17
2018-05-17T21:44:42.659Z,13.10
2018-05-17T21:47:10.903Z,14.93
2018-05-17T21:49:39.953Z,13.97
2018-05-17T21:52:08.164Z,14.37
2018-05-17T21:54:36.450Z,13.20
2018-05-17T21:57:04.801Z,14.00
2018-05-17T21:59:33.063Z,14.77
2018-05-17T22:02:02.126Z,13.63
2018-05-17T22:04:30.366Z,15.57
2018-05-17T22:06:59.402Z,15.03
2018-05-17T22:09:27.658Z,14.93
2018-05-17T22:11:56.647Z,15.53
2018-05-17T22:14:24.973Z,14.80
2018-05-17T22:16:53.251Z,15.13
2018-05-17T22:19:22.262Z,15.63
2018-05-17T22:21:51.283Z,15.57
2018-05-17T22:24:19.523Z,14.67
2018-05-17T22:26:47.787Z,14.70
2018-05-17T22:29:15.999Z,14.20
2018-05-17T22:31:45.064Z,14.07
2018-05-17T22:34:13.312Z,13.53
2018-05-17T22:36:41.571Z,13.57
2018-05-17T22:39:09.816Z,13.90
2018-05-17T22:41:38.075Z,14.67
2018-05-17T22:44:06.318Z,12.73
2018-05-17T22:46:34.587Z,13.43
2018-05-17T22:49:02.875Z,14.63
2018-05-17T22:51:31.152Z,12.03
2018-05-17T22:54:00.166Z,12.57
2018-05-17T22:56:46.104Z,12.33
2018-05-17T22:59:14.349Z,11.60
2018-05-17T23:01:43.451Z,12.50
2018-05-17T23:04:12.479Z,12.90
2018-05-17T23:06:40.810Z,12.07
2018-05-17T23:09:09.046Z,11.77
2018-05-17T23:11:38.078Z,11.50
2018-05-17T23:14:06.272Z,11.57
2018-05-17T23:16:34.591Z,11.17
2018-05-17T23:19:02.843Z,11.67
2018-05-17T23:21:31.055Z,11.80
2018-05-17T23:24:00.121Z,12.00
2018-05-17T23:26:28.376Z,10.73
2018-05-17T23:28:56.637Z,10.90
2018-05-17T23:31:24.939Z,10.97
2018-05-17T23:33:53.198Z,12.27
2018-05-17T23:36:21.441Z,10.47
2018-05-17T23:38:49.704Z,11.07
2018-05-17T23:41:34.859Z,10.13
2018-05-17T23:44:03.123Z,9.53
2018-05-17T23:46:37.663Z,9.30
2018-05-17T23:49:06.652Z,10.33
2018-05-17T23:51:34.934Z,9.37
2018-05-17T23:54:03.198Z,9.73
2018-05-17T23:56:31.445Z,9.40
2018-05-17T23:58:59.695Z,9.73
